Isis — PBXD — position and weather

sailwx.info

Track history (hours):
 
Tides and Currents Weather Stations Pressure Air Temp Water Temp Dewpoint Dewpoint Depression Visibility Wind Speed Wind Dir Waves Ship Positions

Oceanographic research ship Isis (Netherlands)

Detailed information on ship capabilities available from University of Delaware's Ocean Information Center.

Last reported at 2020-Sep-24 06:28 UTC. Time now 2020-Sep-24 06:57 UTC.
Position N 52°06' E 004°16'.

Length 28 m; beam 8 m.

Type: Other ship. MMSI: 244767000.

Date/timePositionNaut miles runAvg speedWind from/ knotsBaromVisibWave heightAir tempDewpointWater temp
2020-Sep-24 06:28N 52°06' E 004°16'0 0.0
2020-Sep-24 05:28N 52°06' E 004°16'0 0.0
2020-Sep-24 02:58N 52°06' E 004°16'0 0.0
2020-Sep-24 02:28N 52°06' E 004°16'0 0.0
2020-Sep-24 01:58N 52°06' E 004°16'0 0.0
2020-Sep-23 21:28N 52°06' E 004°16'0 0.0
2020-Sep-23 19:58N 52°06' E 004°16'0 0.0
2020-Sep-23 19:25N 52°06' E 004°16'0 0.0
2020-Sep-23 19:22N 52°06' E 004°16'0 0.0
2020-Sep-23 18:58N 52°06' E 004°16'0 0.0
2020-Sep-23 15:01N 52°06' E 004°16'0 0.0
2020-Sep-23 14:00N 52°06' E 004°16'6 3.1
2020-Sep-23 12:00N 52°12' E 004°17'3 3.4
2020-Sep-23 11:00N 52°15' E 004°14'3 5.2
2020-Sep-23 10:31N 52°16' E 004°10'86 7.5
2020-Sep-22 23:00N 53°35' E 005°08'44 3.3
2020-Sep-22 09:27N 53°51' E 006°18'16 8.5
2020-Sep-22 07:34N 53°36' E 006°09'1 9.9
2020-Sep-22 07:28N 53°35' E 006°08'5 9.7
2020-Sep-22 07:00N 53°32' E 006°02'9 4.5
2020-Sep-22 04:55N 53°24' E 006°12'0 0.0
2020-Sep-22 03:16N 53°24' E 006°12'13 3.1
2020-Sep-21 23:00N 53°33' E 005°55'7 7.3
2020-Sep-21 22:00N 53°33' E 005°43'5 9.1
2020-Sep-21 21:30N 53°35' E 005°35'5 5.1
2020-Sep-21 20:30N 53°33' E 005°27'16 5.5
2020-Sep-21 17:30N 53°27' E 005°02'10 6.4
2020-Sep-21 16:00N 53°22' E 004°48'13 6.7
2020-Sep-21 14:00N 53°11' E 004°34'15 4.3
2020-Sep-21 10:30N 52°58' E 004°46'1 0.7
2020-Sep-21 08:23N 52°57' E 004°47'0 0.0
2020-Sep-21 07:23N 52°57' E 004°47'0 0.0
2020-Sep-21 05:29N 52°57' E 004°47'0 0.0
2020-Sep-21 01:29N 52°57' E 004°47'0 0.0
2020-Sep-20 18:41N 52°57' E 004°47'0 0.0
2020-Sep-20 16:23N 52°57' E 004°47'0 0.0
2020-Sep-20 15:49N 52°57' E 004°47'0 0.0
2020-Sep-20 14:26N 52°57' E 004°47'0 0.0
2020-Sep-20 12:29N 52°57' E 004°47'0 0.0
2020-Sep-20 11:46N 52°57' E 004°47'0 0.0
2020-Sep-20 11:16N 52°57' E 004°47'0 0.0
2020-Sep-20 10:23N 52°57' E 004°47'0 0.0
2020-Sep-20 06:44N 52°57' E 004°47'0 0.0
2020-Sep-20 05:58N 52°57' E 004°47'0 0.0
2020-Sep-19 13:58N 52°57' E 004°47'0 0.0
2020-Sep-19 10:55N 52°57' E 004°47'0 0.0
2020-Sep-19 02:28N 52°57' E 004°47'0 0.0
2020-Sep-19 01:28N 52°57' E 004°47'0 0.0
2020-Sep-18 18:37N 52°57' E 004°47'0 0.0
2020-Sep-18 14:58N 52°57' E 004°47'0 0.0
2020-Sep-18 13:28N 52°57' E 004°47'0 0.0
2020-Sep-18 10:28N 52°57' E 004°47'0 0.0
2020-Sep-18 02:37N 52°57' E 004°47'0 0.0
2020-Sep-18 01:13N 52°57' E 004°47'0 0.0
2020-Sep-18 00:52N 52°57' E 004°47'0 0.0
2020-Sep-17 15:28N 52°57' E 004°47'0 0.0
2020-Sep-17 14:10N 52°57' E 004°47'0 0.0
2020-Sep-17 11:55N 52°57' E 004°47'13 1.4
2020-Sep-17 03:12N 53°08' E 004°38'52 7.8
2020-Sep-16 20:30N 53°35' E 005°53'64 4.1
2020-Sep-16 04:56N 54°20' E 007°11'2 4.3
2020-Sep-16 04:29N 54°19' E 007°15'8 4.3
2020-Sep-16 02:42N 54°19' E 007°27'125 3.1
2020-Sep-14 09:58N 52°58' E 004°47'  
Track history (hours):
 
Tides and Currents Weather Stations Pressure Air Temp Water Temp Dewpoint Dewpoint Depression Visibility Wind Speed Wind Dir Waves Ship Positions

Oceanographic research ship Isis (Netherlands)

Detailed information on ship capabilities available from University of Delaware's Ocean Information Center.

Last reported at 2020-Sep-24 06:28 UTC. Time now 2020-Sep-24 06:57 UTC.
Position N 52°06' E 004°16'.

Length 28 m; beam 8 m.

Type: Other ship. MMSI: 244767000.

Date/timePositionNaut miles runAvg speedWind from/ knotsBaromVisibWave heightAir tempDewpointWater temp
2020-Sep-24 06:28N 52°06' E 004°16'0 0.0
2020-Sep-24 05:28N 52°06' E 004°16'0 0.0
2020-Sep-24 02:58N 52°06' E 004°16'0 0.0
2020-Sep-24 02:28N 52°06' E 004°16'0 0.0
2020-Sep-24 01:58N 52°06' E 004°16'0 0.0
2020-Sep-23 21:28N 52°06' E 004°16'0 0.0
2020-Sep-23 19:58N 52°06' E 004°16'0 0.0
2020-Sep-23 19:25N 52°06' E 004°16'0 0.0
2020-Sep-23 19:22N 52°06' E 004°16'0 0.0
2020-Sep-23 18:58N 52°06' E 004°16'0 0.0
2020-Sep-23 15:01N 52°06' E 004°16'0 0.0
2020-Sep-23 14:00N 52°06' E 004°16'6 3.1
2020-Sep-23 12:00N 52°12' E 004°17'3 3.4
2020-Sep-23 11:00N 52°15' E 004°14'3 5.2
2020-Sep-23 10:31N 52°16' E 004°10'86 7.5
2020-Sep-22 23:00N 53°35' E 005°08'44 3.3
2020-Sep-22 09:27N 53°51' E 006°18'16 8.5
2020-Sep-22 07:34N 53°36' E 006°09'1 9.9
2020-Sep-22 07:28N 53°35' E 006°08'5 9.7
2020-Sep-22 07:00N 53°32' E 006°02'9 4.5
2020-Sep-22 04:55N 53°24' E 006°12'0 0.0
2020-Sep-22 03:16N 53°24' E 006°12'13 3.1
2020-Sep-21 23:00N 53°33' E 005°55'7 7.3
2020-Sep-21 22:00N 53°33' E 005°43'5 9.1
2020-Sep-21 21:30N 53°35' E 005°35'5 5.1
2020-Sep-21 20:30N 53°33' E 005°27'16 5.5
2020-Sep-21 17:30N 53°27' E 005°02'10 6.4
2020-Sep-21 16:00N 53°22' E 004°48'13 6.7
2020-Sep-21 14:00N 53°11' E 004°34'15 4.3
2020-Sep-21 10:30N 52°58' E 004°46'1 0.7
2020-Sep-21 08:23N 52°57' E 004°47'0 0.0
2020-Sep-21 07:23N 52°57' E 004°47'0 0.0
2020-Sep-21 05:29N 52°57' E 004°47'0 0.0
2020-Sep-21 01:29N 52°57' E 004°47'0 0.0
2020-Sep-20 18:41N 52°57' E 004°47'0 0.0
2020-Sep-20 16:23N 52°57' E 004°47'0 0.0
2020-Sep-20 15:49N 52°57' E 004°47'0 0.0
2020-Sep-20 14:26N 52°57' E 004°47'0 0.0
2020-Sep-20 12:29N 52°57' E 004°47'0 0.0
2020-Sep-20 11:46N 52°57' E 004°47'0 0.0
2020-Sep-20 11:16N 52°57' E 004°47'0 0.0
2020-Sep-20 10:23N 52°57' E 004°47'0 0.0
2020-Sep-20 06:44N 52°57' E 004°47'0 0.0
2020-Sep-20 05:58N 52°57' E 004°47'0 0.0
2020-Sep-19 13:58N 52°57' E 004°47'0 0.0
2020-Sep-19 10:55N 52°57' E 004°47'0 0.0
2020-Sep-19 02:28N 52°57' E 004°47'0 0.0
2020-Sep-19 01:28N 52°57' E 004°47'0 0.0
2020-Sep-18 18:37N 52°57' E 004°47'0 0.0
2020-Sep-18 14:58N 52°57' E 004°47'0 0.0
2020-Sep-18 13:28N 52°57' E 004°47'0 0.0
2020-Sep-18 10:28N 52°57' E 004°47'0 0.0
2020-Sep-18 02:37N 52°57' E 004°47'0 0.0
2020-Sep-18 01:13N 52°57' E 004°47'0 0.0
2020-Sep-18 00:52N 52°57' E 004°47'0 0.0
2020-Sep-17 15:28N 52°57' E 004°47'0 0.0
2020-Sep-17 14:10N 52°57' E 004°47'0 0.0
2020-Sep-17 11:55N 52°57' E 004°47'13 1.4
2020-Sep-17 03:12N 53°08' E 004°38'52 7.8
2020-Sep-16 20:30N 53°35' E 005°53'64 4.1
2020-Sep-16 04:56N 54°20' E 007°11'2 4.3
2020-Sep-16 04:29N 54°19' E 007°15'8 4.3
2020-Sep-16 02:42N 54°19' E 007°27'125 3.1
2020-Sep-14 09:58N 52°58' E 004°47'  

Dump ship's entire track history